createdAt,value
2016-08-23T00:00:42.366Z,17.73
2016-08-23T00:01:41.618Z,17.73
2016-08-23T00:02:41.627Z,17.75
2016-08-23T00:03:42.277Z,17.82
2016-08-23T00:04:42.297Z,17.8
2016-08-23T00:05:41.616Z,17.76
2016-08-23T00:06:42.359Z,17.76
2016-08-23T00:07:41.673Z,17.84
2016-08-23T00:08:42.417Z,17.84
2016-08-23T00:09:41.709Z,17.88
2016-08-23T00:10:42.430Z,17.76
2016-08-23T00:11:41.070Z,17.86
2016-08-23T00:12:42.498Z,17.8
2016-08-23T00:13:41.801Z,17.87
2016-08-23T00:14:42.548Z,17.86
2016-08-23T00:15:41.857Z,17.93
2016-08-23T00:16:42.595Z,17.88
2016-08-23T00:17:42.617Z,17.86
2016-08-23T00:18:41.257Z,17.9
2016-08-23T00:19:41.958Z,17.87
2016-08-23T00:20:41.292Z,17.9
2016-08-23T00:21:42.716Z,17.88
2016-08-23T00:22:42.025Z,17.93
2016-08-23T00:23:42.037Z,17.91
2016-08-23T00:24:42.122Z,17.88
2016-08-23T00:25:42.099Z,17.91
2016-08-23T00:26:42.930Z,17.87
2016-08-23T00:27:42.215Z,17.94
2016-08-23T00:28:42.178Z,18
2016-08-23T00:29:42.197Z,17.95
2016-08-23T00:30:42.922Z,17.98
2016-08-23T00:31:42.952Z,17.93
2016-08-23T00:32:42.966Z,17.97
2016-08-23T00:33:42.284Z,17.95
2016-08-23T00:34:43.025Z,18
2016-08-23T00:35:43.096Z,18
2016-08-23T00:36:43.079Z,18.05
2016-08-23T00:37:43.155Z,18.02
2016-08-23T00:38:43.103Z,18.03
2016-08-23T00:39:43.153Z,17.95
2016-08-23T00:40:43.156Z,17.98
2016-08-23T00:41:43.199Z,17.98
2016-08-23T00:42:43.205Z,18.02
2016-08-23T00:43:43.243Z,18
2016-08-23T00:44:43.387Z,18
2016-08-23T00:45:43.285Z,18.03
2016-08-23T00:46:42.657Z,18.03
2016-08-23T00:47:43.326Z,17.98
2016-08-23T00:48:42.652Z,18.02
2016-08-23T00:49:42.665Z,18.06
2016-08-23T00:50:41.986Z,17.98
2016-08-23T00:51:42.726Z,18
2016-08-23T00:52:43.457Z,18.12
2016-08-23T00:53:43.475Z,18.05
2016-08-23T00:54:43.498Z,18.12
2016-08-23T00:55:43.517Z,18
2016-08-23T00:56:42.837Z,18.05
2016-08-23T00:57:43.586Z,18.03
2016-08-23T00:58:42.906Z,17.98
2016-08-23T00:59:43.618Z,18.13
2016-08-23T01:00:42.927Z,18
2016-08-23T01:01:42.950Z,18.03
2016-08-23T01:02:43.687Z,18.03
2016-08-23T01:03:43.016Z,17.95
2016-08-23T01:04:43.035Z,18.06
2016-08-23T01:05:43.039Z,18.06
2016-08-23T01:06:42.396Z,17.98
2016-08-23T01:07:43.795Z,18.12
2016-08-23T01:08:43.155Z,18.05
2016-08-23T01:09:42.437Z,18.03
2016-08-23T01:10:43.163Z,17.97
2016-08-23T01:11:43.196Z,17.98
2016-08-23T01:12:43.937Z,17.97
2016-08-23T01:13:43.268Z,18
2016-08-23T01:14:43.978Z,18.02
2016-08-23T01:15:43.286Z,17.98
2016-08-23T01:16:43.318Z,18
2016-08-23T01:17:44.037Z,17.98
2016-08-23T01:18:43.371Z,18.05
2016-08-23T01:19:44.108Z,18.02
2016-08-23T01:20:44.117Z,18.09
2016-08-23T01:21:44.238Z,18
2016-08-23T01:22:43.482Z,17.97
2016-08-23T01:23:43.486Z,18.05
2016-08-23T01:24:43.501Z,18.15
2016-08-23T01:25:44.237Z,18.09
2016-08-23T01:26:44.268Z,18.05
2016-08-23T01:27:44.296Z,18.05
2016-08-23T01:28:43.613Z,18.12
2016-08-23T01:29:44.327Z,18.11
2016-08-23T01:30:43.719Z,18.16
2016-08-23T01:31:43.677Z,18.09
2016-08-23T01:32:44.406Z,18.15
2016-08-23T01:33:44.437Z,18.08
2016-08-23T01:34:43.768Z,18.11
2016-08-23T01:35:44.472Z,18.15
2016-08-23T01:36:43.794Z,18.06
2016-08-23T01:37:43.868Z,18.12
2016-08-23T01:38:43.835Z,18.11
2016-08-23T01:39:43.956Z,18.11
2016-08-23T01:40:44.591Z,18.11
2016-08-23T01:41:43.277Z,18.11
2016-08-23T01:42:43.941Z,18.13
2016-08-23T01:43:44.687Z,17.98
2016-08-23T01:44:43.993Z,18.03
2016-08-23T01:45:44.017Z,17.98
2016-08-23T01:46:44.046Z,18.02
2016-08-23T01:47:44.062Z,18.02
2016-08-23T01:48:43.467Z,17.97
2016-08-23T01:49:44.114Z,17.94
2016-08-23T01:50:44.136Z,18.03
2016-08-23T01:51:43.457Z,17.97
2016-08-23T01:52:44.242Z,17.97
2016-08-23T01:53:44.895Z,17.97
2016-08-23T01:54:45.012Z,18.03
2016-08-23T01:55:44.947Z,18.03
2016-08-23T01:56:44.274Z,18
2016-08-23T01:57:44.298Z,17.95
2016-08-23T01:58:44.325Z,18
2016-08-23T01:59:45.047Z,17.98
2016-08-23T02:00:45.147Z,17.95
2016-08-23T02:01:45.111Z,17.98
2016-08-23T02:02:45.130Z,17.98
2016-08-23T02:03:44.454Z,17.97
2016-08-23T02:04:43.756Z,18.09
2016-08-23T02:05:44.495Z,18.06
2016-08-23T02:06:45.227Z,18.03
2016-08-23T02:07:45.235Z,18.02
2016-08-23T02:08:45.277Z,18.05
2016-08-23T02:09:43.898Z,17.97
2016-08-23T02:10:45.327Z,18.09
2016-08-23T02:11:45.395Z,18.09
2016-08-23T02:12:43.954Z,18.09
2016-08-23T02:13:45.386Z,18.13
2016-08-23T02:14:44.834Z,18.12
2016-08-23T02:15:45.428Z,18.09
2016-08-23T02:16:44.837Z,18.11
2016-08-23T02:17:44.797Z,18.13
2016-08-23T02:18:45.539Z,18.08
2016-08-23T02:19:44.837Z,18.15
2016-08-23T02:20:44.857Z,18.16
2016-08-23T02:21:45.596Z,18.02
2016-08-23T02:22:45.605Z,18.02
2016-08-23T02:23:45.643Z,18.08
2016-08-23T02:24:45.647Z,18.13
2016-08-23T02:25:45.687Z,18.03
2016-08-23T02:26:44.996Z,18.15
2016-08-23T02:27:44.315Z,18.03
2016-08-23T02:28:45.038Z,18.13
2016-08-23T02:29:45.822Z,18.13
2016-08-23T02:30:45.787Z,18.08
2016-08-23T02:31:45.139Z,18.05
2016-08-23T02:32:45.137Z,18.05
2016-08-23T02:33:45.875Z,18.08
2016-08-23T02:34:45.895Z,18.09
2016-08-23T02:35:45.215Z,17.94
2016-08-23T02:36:45.946Z,18.03
2016-08-23T02:37:45.971Z,18.03
2016-08-23T02:38:44.580Z,17.95
2016-08-23T02:39:46.007Z,18.02
2016-08-23T02:40:46.061Z,18.05
2016-08-23T02:41:46.067Z,18.09
2016-08-23T02:42:46.097Z,18.11
2016-08-23T02:43:45.407Z,18.09
2016-08-23T02:44:46.146Z,18.08
2016-08-23T02:45:46.155Z,18.08
2016-08-23T02:46:46.193Z,18.03
2016-08-23T02:47:46.216Z,18.05
2016-08-23T02:48:45.534Z,18.09
2016-08-23T02:49:46.267Z,18.15
2016-08-23T02:50:45.572Z,18.06
2016-08-23T02:51:46.353Z,18.02
2016-08-23T02:52:45.633Z,18
2016-08-23T02:53:46.346Z,18
2016-08-23T02:54:46.379Z,18.08
2016-08-23T02:55:45.731Z,18.03
2016-08-23T02:56:45.714Z,17.94
2016-08-23T02:57:45.733Z,18.02
2016-08-23T02:58:46.477Z,17.97
2016-08-23T02:59:46.494Z,17.97
2016-08-23T03:00:45.895Z,18.02
2016-08-23T03:01:45.901Z,18.02
2016-08-23T03:02:46.614Z,17.95
2016-08-23T03:03:46.615Z,17.94
2016-08-23T03:04:45.914Z,18.03
2016-08-23T03:05:45.942Z,17.98
2016-08-23T03:06:45.964Z,18.03
2016-08-23T03:07:46.693Z,17.95
2016-08-23T03:08:46.720Z,18
2016-08-23T03:09:46.029Z,18.03
2016-08-23T03:10:46.055Z,18.05
2016-08-23T03:11:46.084Z,17.94
2016-08-23T03:12:46.819Z,18.03
2016-08-23T03:13:46.186Z,17.97
2016-08-23T03:14:45.439Z,17.98
2016-08-23T03:15:46.889Z,18.03
2016-08-23T03:16:46.891Z,17.98
2016-08-23T03:17:46.949Z,17.95
2016-08-23T03:18:45.573Z,17.98
2016-08-23T03:19:46.275Z,17.94
2016-08-23T03:20:45.639Z,17.97
2016-08-23T03:21:46.313Z,17.97
2016-08-23T03:22:46.420Z,18.02
2016-08-23T03:23:47.069Z,18.03
2016-08-23T03:24:45.683Z,18.02
2016-08-23T03:25:46.413Z,17.98
2016-08-23T03:26:46.443Z,17.97
2016-08-23T03:27:46.549Z,18.03
2016-08-23T03:28:46.494Z,18
2016-08-23T03:29:46.105Z,18.05
2016-08-23T03:30:46.534Z,18
2016-08-23T03:31:45.865Z,18.13
2016-08-23T03:32:46.593Z,18.09
2016-08-23T03:33:46.799Z,18.08
2016-08-23T03:34:46.649Z,18.09
2016-08-23T03:35:47.375Z,18.05
2016-08-23T03:36:46.688Z,18.05
2016-08-23T03:37:46.815Z,18.06
2016-08-23T03:38:46.833Z,18.15
2016-08-23T03:39:46.809Z,18.02
2016-08-23T03:40:46.871Z,18.06
2016-08-23T03:41:46.155Z,18.11
2016-08-23T03:42:46.874Z,18.18
2016-08-23T03:43:46.845Z,18.13
2016-08-23T03:44:47.574Z,18.16
2016-08-23T03:45:47.603Z,18.13
2016-08-23T03:46:46.971Z,18.11
2016-08-23T03:47:46.233Z,18.09
2016-08-23T03:48:47.773Z,18.11
2016-08-23T03:49:46.988Z,18.16
2016-08-23T03:50:47.723Z,18.16
2016-08-23T03:51:47.056Z,18.18
2016-08-23T03:52:47.072Z,18.15
2016-08-23T03:53:47.107Z,18.12
2016-08-23T03:54:46.421Z,18.12
2016-08-23T03:55:46.512Z,18.15
2016-08-23T03:56:46.453Z,18.12
2016-08-23T03:57:47.907Z,18.16
2016-08-23T03:58:47.197Z,18.11
2016-08-23T03:59:46.524Z,18.13
2016-08-23T04:00:46.596Z,18.13
2016-08-23T04:01:47.293Z,18.18
2016-08-23T04:02:47.311Z,18.16
2016-08-23T04:03:48.042Z,18.15
2016-08-23T04:04:46.706Z,18.24
2016-08-23T04:05:47.380Z,18.19
2016-08-23T04:06:48.213Z,18.23
2016-08-23T04:07:48.134Z,18.12
2016-08-23T04:08:47.454Z,18.12
2016-08-23T04:09:47.506Z,18.15
2016-08-23T04:10:47.563Z,18.15
2016-08-23T04:11:47.525Z,18.16
2016-08-23T04:12:46.847Z,18.13
2016-08-23T04:13:48.295Z,18.11
2016-08-23T04:14:47.593Z,18.19
2016-08-23T04:15:47.781Z,18.13
2016-08-23T04:16:47.653Z,18.16
2016-08-23T04:17:47.712Z,18.15
2016-08-23T04:18:48.418Z,18.12
2016-08-23T04:19:47.725Z,18.16
2016-08-23T04:20:47.762Z,18.12
2016-08-23T04:21:47.762Z,18.16
2016-08-23T04:22:47.804Z,18.15
2016-08-23T04:23:47.822Z,18.11
2016-08-23T04:24:47.261Z,18.15
2016-08-23T04:25:47.864Z,18.15
2016-08-23T04:26:47.933Z,18.24
2016-08-23T04:27:48.624Z,18.24
2016-08-23T04:28:48.664Z,18.13
2016-08-23T04:29:47.264Z,18.26
2016-08-23T04:30:47.584Z,18.27
2016-08-23T04:31:48.019Z,18.24
2016-08-23T04:32:48.760Z,18.23
2016-08-23T04:33:48.770Z,18.19
2016-08-23T04:34:48.087Z,18.19
2016-08-23T04:35:48.818Z,18.16
2016-08-23T04:36:48.847Z,18.19
2016-08-23T04:37:47.531Z,18.15
2016-08-23T04:38:47.484Z,18.16
2016-08-23T04:39:48.496Z,18.21
2016-08-23T04:40:48.234Z,18.15
2016-08-23T04:41:48.385Z,18.21
2016-08-23T04:42:48.990Z,18.27
2016-08-23T04:43:47.714Z,18.16
2016-08-23T04:44:49.033Z,18.19
2016-08-23T04:45:48.372Z,18.27
2016-08-23T04:46:49.073Z,18.24
2016-08-23T04:47:48.383Z,18.24
2016-08-23T04:48:48.451Z,18.21
2016-08-23T04:49:48.456Z,18.23
2016-08-23T04:50:48.482Z,18.23
2016-08-23T04:51:49.203Z,18.28
2016-08-23T04:52:49.230Z,18.23
2016-08-23T04:53:48.543Z,18.21
2016-08-23T04:54:48.581Z,18.31
2016-08-23T04:55:48.603Z,18.28
2016-08-23T04:56:48.623Z,18.3
2016-08-23T04:57:48.643Z,18.3
2016-08-23T04:58:49.393Z,18.33
2016-08-23T04:59:48.693Z,18.28
2016-08-23T05:00:48.775Z,18.3
2016-08-23T05:01:48.753Z,18.3
2016-08-23T05:02:48.769Z,18.31
2016-08-23T05:03:48.873Z,18.28
2016-08-23T05:04:48.808Z,18.31
2016-08-23T05:05:48.944Z,18.43
2016-08-23T05:06:49.563Z,18.36
2016-08-23T05:07:48.873Z,18.37
2016-08-23T05:08:48.211Z,18.39
2016-08-23T05:09:48.927Z,18.39
2016-08-23T05:10:48.960Z,18.36
2016-08-23T05:11:48.994Z,18.41
2016-08-23T05:12:49.021Z,18.48
2016-08-23T05:13:49.736Z,18.43
2016-08-23T05:14:49.194Z,18.52
2016-08-23T05:15:49.092Z,18.48
2016-08-23T05:16:49.124Z,18.51
2016-08-23T05:17:49.118Z,18.46
2016-08-23T05:18:49.974Z,18.48
2016-08-23T05:19:49.173Z,18.57
2016-08-23T05:20:48.492Z,18.58
2016-08-23T05:21:48.519Z,18.58
2016-08-23T05:22:49.963Z,18.6
2016-08-23T05:23:48.573Z,18.66
2016-08-23T05:24:48.597Z,18.61
2016-08-23T05:25:49.373Z,18.61
2016-08-23T05:26:50.059Z,18.61
2016-08-23T05:27:50.174Z,18.67
2016-08-23T05:28:48.684Z,18.68
2016-08-23T05:29:50.156Z,18.66
2016-08-23T05:30:49.641Z,18.82
2016-08-23T05:31:49.644Z,18.7
2016-08-23T05:32:50.361Z,18.83
2016-08-23T05:33:50.385Z,18.78
2016-08-23T05:34:50.359Z,18.81
2016-08-23T05:35:49.691Z,18.76
2016-08-23T05:36:48.984Z,18.81
2016-08-23T05:37:50.382Z,18.82
2016-08-23T05:38:49.851Z,18.83
2016-08-23T05:39:50.383Z,18.88
2016-08-23T05:40:50.556Z,18.91
2016-08-23T05:41:49.722Z,18.91
2016-08-23T05:42:49.784Z,18.98
2016-08-23T05:43:50.463Z,19.01
2016-08-23T05:44:49.782Z,18.82
2016-08-23T05:45:50.512Z,18.91
2016-08-23T05:46:49.853Z,19.04
2016-08-23T05:47:50.555Z,18.96
2016-08-23T05:48:50.600Z,19.05
2016-08-23T05:49:49.272Z,19.04
2016-08-23T05:50:49.924Z,19.08
2016-08-23T05:51:50.702Z,19.08
2016-08-23T05:52:49.299Z,19.19
2016-08-23T05:53:50.017Z,19.22
2016-08-23T05:54:50.742Z,19.24
2016-08-23T05:55:50.084Z,19.37
2016-08-23T05:56:49.458Z,19.3
2016-08-23T05:57:50.111Z,19.44
2016-08-23T05:58:50.834Z,19.42
2016-08-23T05:59:50.173Z,19.48
2016-08-23T06:00:50.946Z,19.48
2016-08-23T06:01:50.210Z,19.48
2016-08-23T06:02:50.243Z,19.47
2016-08-23T06:03:50.952Z,19.41
2016-08-23T06:04:50.995Z,19.39
2016-08-23T06:05:50.319Z,19.47
2016-08-23T06:06:51.074Z,19.48
2016-08-23T06:07:49.653Z,19.44
2016-08-23T06:08:50.381Z,19.48
2016-08-23T06:09:51.107Z,19.42
2016-08-23T06:10:50.413Z,19.48
2016-08-23T06:11:50.513Z,19.53
2016-08-23T06:12:51.172Z,19.41
2016-08-23T06:13:50.563Z,19.42
2016-08-23T06:14:51.227Z,19.34
2016-08-23T06:15:51.289Z,19.39
2016-08-23T06:16:51.285Z,19.35
2016-08-23T06:17:51.309Z,19.32
2016-08-23T06:18:50.634Z,19.38
2016-08-23T06:19:51.376Z,19.37
2016-08-23T06:20:50.693Z,19.41
2016-08-23T06:21:50.704Z,19.35
2016-08-23T06:22:50.728Z,19.34
2016-08-23T06:23:50.759Z,19.38
2016-08-23T06:24:51.505Z,19.3
2016-08-23T06:25:50.803Z,19.41
2016-08-23T06:26:50.121Z,19.35
2016-08-23T06:27:51.551Z,19.37
2016-08-23T06:28:51.592Z,19.42
2016-08-23T06:29:50.886Z,19.39
2016-08-23T06:30:51.617Z,19.42
2016-08-23T06:31:50.999Z,19.47
2016-08-23T06:32:50.274Z,19.52
2016-08-23T06:33:51.087Z,19.6
2016-08-23T06:34:51.745Z,19.56
2016-08-23T06:35:51.049Z,19.62
2016-08-23T06:36:50.361Z,19.62
2016-08-23T06:37:51.151Z,19.63
2016-08-23T06:38:51.833Z,19.67
2016-08-23T06:39:51.163Z,19.67
2016-08-23T06:40:51.168Z,19.7
2016-08-23T06:41:51.894Z,19.66
2016-08-23T06:42:50.514Z,19.64
2016-08-23T06:43:51.965Z,19.66
2016-08-23T06:44:52.097Z,19.63
2016-08-23T06:45:51.994Z,19.62
2016-08-23T06:46:52.051Z,19.7
2016-08-23T06:47:52.064Z,19.67
2016-08-23T06:48:52.090Z,19.66
2016-08-23T06:49:52.335Z,19.7
2016-08-23T06:50:52.142Z,19.63
2016-08-23T06:51:52.149Z,19.64
2016-08-23T06:52:51.462Z,19.66
2016-08-23T06:53:51.509Z,19.6
2016-08-23T06:54:52.239Z,19.63
2016-08-23T06:55:51.654Z,19.59
2016-08-23T06:56:50.865Z,19.64
2016-08-23T06:57:50.973Z,19.64
2016-08-23T06:58:51.622Z,19.7
2016-08-23T06:59:51.645Z,19.66
2016-08-23T07:00:50.972Z,19.78
2016-08-23T07:01:51.705Z,19.82
2016-08-23T07:02:52.452Z,19.79
2016-08-23T07:03:51.763Z,19.77
2016-08-23T07:04:52.495Z,19.85
2016-08-23T07:05:52.496Z,19.84
2016-08-23T07:06:51.842Z,19.85
2016-08-23T07:07:51.205Z,19.85
2016-08-23T07:08:51.931Z,19.85
2016-08-23T07:09:51.906Z,19.93
2016-08-23T07:10:51.913Z,19.97
2016-08-23T07:11:51.946Z,20.07
2016-08-23T07:12:51.967Z,20.12
2016-08-23T07:13:51.986Z,20.18
2016-08-23T07:14:52.035Z,20.19
2016-08-23T07:15:52.101Z,20.18
2016-08-23T07:16:51.381Z,20.29
2016-08-23T07:17:52.100Z,20.32
2016-08-23T07:18:51.428Z,20.44
2016-08-23T07:19:52.191Z,20.44
2016-08-23T07:20:52.895Z,20.59
2016-08-23T07:21:51.489Z,20.67
2016-08-23T07:22:52.934Z,20.77
2016-08-23T07:23:52.242Z,20.77
2016-08-23T07:24:52.980Z,20.78
2016-08-23T07:25:52.307Z,20.86
2016-08-23T07:26:53.041Z,20.86
2016-08-23T07:27:52.362Z,20.86
2016-08-23T07:28:53.163Z,20.96
2016-08-23T07:29:52.412Z,21
2016-08-23T07:30:53.276Z,21.05
2016-08-23T07:31:53.170Z,21.08
2016-08-23T07:32:53.340Z,21.17
2016-08-23T07:33:53.202Z,21.15
2016-08-23T07:34:52.561Z,21.14
2016-08-23T07:35:53.279Z,21.17
2016-08-23T07:36:53.293Z,21.07
2016-08-23T07:37:53.323Z,21.08
2016-08-23T07:38:52.628Z,20.93
2016-08-23T07:39:52.684Z,21.01
2016-08-23T07:40:53.412Z,20.93
2016-08-23T07:41:53.432Z,20.9
2016-08-23T07:42:53.444Z,20.86
2016-08-23T07:43:52.773Z,20.9
2016-08-23T07:44:52.804Z,20.86
2016-08-23T07:45:53.594Z,20.77
2016-08-23T07:46:53.553Z,20.75
2016-08-23T07:47:53.634Z,20.7
2016-08-23T07:48:53.602Z,20.64
2016-08-23T07:49:52.930Z,20.63
2016-08-23T07:50:53.785Z,20.64
2016-08-23T07:51:53.692Z,20.56
2016-08-23T07:52:53.771Z,20.66
2016-08-23T07:53:53.742Z,20.63
2016-08-23T07:54:53.053Z,20.56
2016-08-23T07:55:53.099Z,20.59
2016-08-23T07:56:53.116Z,20.59
2016-08-23T07:57:53.851Z,20.52
2016-08-23T07:58:53.161Z,20.52
2016-08-23T07:59:52.681Z,20.52
2016-08-23T08:00:53.263Z,20.5
2016-08-23T08:01:54.078Z,20.52
2016-08-23T08:02:53.973Z,20.4
2016-08-23T08:03:53.301Z,20.39
2016-08-23T08:04:52.602Z,20.26
2016-08-23T08:05:54.059Z,20.37
2016-08-23T08:06:53.363Z,20.36
2016-08-23T08:07:53.404Z,20.42
2016-08-23T08:08:53.413Z,20.5
2016-08-23T08:09:53.448Z,20.48
2016-08-23T08:10:53.502Z,20.52
2016-08-23T08:11:54.202Z,20.56
2016-08-23T08:12:53.615Z,20.63
2016-08-23T08:13:52.845Z,20.64
2016-08-23T08:14:53.571Z,20.63
2016-08-23T08:15:53.604Z,20.7
2016-08-23T08:16:53.624Z,20.77
2016-08-23T08:17:54.373Z,20.86
2016-08-23T08:18:53.683Z,20.71
2016-08-23T08:19:53.003Z,20.77
2016-08-23T08:20:53.727Z,20.74
2016-08-23T08:21:53.748Z,20.78
2016-08-23T08:22:53.785Z,20.86
2016-08-23T08:23:54.582Z,20.74
2016-08-23T08:24:53.119Z,20.85
2016-08-23T08:25:53.863Z,20.98
2016-08-23T08:26:54.585Z,20.98
2016-08-23T08:27:54.616Z,21.04
2016-08-23T08:28:53.953Z,21.04
2016-08-23T08:29:53.262Z,21.04
2016-08-23T08:30:53.984Z,21.11
2016-08-23T08:31:54.008Z,21.13
2016-08-23T08:32:54.779Z,21.04
2016-08-23T08:33:54.074Z,21.11
2016-08-23T08:34:54.119Z,21
2016-08-23T08:35:54.811Z,20.95
2016-08-23T08:36:54.840Z,20.95
2016-08-23T08:37:54.174Z,20.93
2016-08-23T08:38:54.218Z,21.01
2016-08-23T08:39:54.229Z,21
2016-08-23T08:40:54.238Z,21.05
2016-08-23T08:41:53.575Z,21.13
2016-08-23T08:42:54.292Z,21.15
2016-08-23T08:43:55.052Z,21.23
2016-08-23T08:44:55.058Z,21.26
2016-08-23T08:45:53.773Z,21.25
2016-08-23T08:46:55.113Z,21.17
2016-08-23T08:47:54.434Z,21.17
2016-08-23T08:48:53.782Z,21.13
2016-08-23T08:49:54.483Z,21.11
2016-08-23T08:50:55.204Z,21.14
2016-08-23T08:51:53.823Z,21.17
2016-08-23T08:52:55.273Z,21.28
2016-08-23T08:53:53.874Z,21.22
2016-08-23T08:54:55.365Z,21.2
2016-08-23T08:55:54.639Z,21.25
2016-08-23T08:56:55.362Z,21.14
2016-08-23T08:57:55.393Z,21.23
2016-08-23T08:58:55.436Z,21.23
2016-08-23T08:59:54.736Z,21.1
2016-08-23T09:00:55.513Z,21.04
2016-08-23T09:01:54.790Z,21.01
2016-08-23T09:02:54.894Z,21.13
2016-08-23T09:03:54.849Z,21.17
2016-08-23T09:04:55.578Z,21.35
2016-08-23T09:05:55.607Z,21.41
2016-08-23T09:06:55.624Z,21.53
2016-08-23T09:07:55.895Z,21.63
2016-08-23T09:08:55.681Z,21.88
2016-08-23T09:09:55.706Z,22.08
2016-08-23T09:10:55.021Z,22.25
2016-08-23T09:11:55.756Z,22.44
2016-08-23T09:12:55.083Z,22.49
2016-08-23T09:13:55.098Z,22.58
2016-08-23T09:14:55.154Z,22.73
2016-08-23T09:15:56.014Z,22.84
2016-08-23T09:16:54.472Z,22.93
2016-08-23T09:17:55.969Z,23.2
2016-08-23T09:18:55.242Z,23.37
2016-08-23T09:19:54.560Z,23.66
2016-08-23T09:20:55.292Z,23.91
2016-08-23T09:21:56.015Z,23.99
2016-08-23T09:22:55.349Z,24.03
2016-08-23T09:23:56.083Z,24.1
2016-08-23T09:24:54.683Z,24
2016-08-23T09:25:54.722Z,23.86
2016-08-23T09:26:56.169Z,23.74
2016-08-23T09:27:55.482Z,23.63
2016-08-23T09:28:56.218Z,23.51
2016-08-23T09:29:55.584Z,23.34
2016-08-23T09:30:55.561Z,23.34
2016-08-23T09:31:56.289Z,23.37
2016-08-23T09:32:55.611Z,23.36
2016-08-23T09:33:55.664Z,23.39
2016-08-23T09:34:55.684Z,23.51
2016-08-23T09:35:55.732Z,23.52
2016-08-23T09:36:55.775Z,23.62
2016-08-23T09:37:55.038Z,23.62
2016-08-23T09:38:55.777Z,23.63
2016-08-23T09:39:55.807Z,23.73
2016-08-23T09:40:56.541Z,23.77
2016-08-23T09:41:56.562Z,23.77
2016-08-23T09:42:56.082Z,23.73
2016-08-23T09:43:55.907Z,23.71
2016-08-23T09:44:56.663Z,23.77
2016-08-23T09:45:56.119Z,23.77
2016-08-23T09:46:55.274Z,23.82
2016-08-23T09:47:56.163Z,23.89
2016-08-23T09:48:56.758Z,24.03
2016-08-23T09:49:55.355Z,23.94
2016-08-23T09:50:56.153Z,23.91
2016-08-23T09:51:56.174Z,24
2016-08-23T09:52:56.856Z,24.06
2016-08-23T09:53:56.900Z,24.21
2016-08-23T09:54:55.602Z,24.38
2016-08-23T09:55:56.233Z,24.58
2016-08-23T09:56:56.953Z,24.78
2016-08-23T09:57:56.285Z,24.77
2016-08-23T09:58:57.009Z,24.75
2016-08-23T09:59:57.063Z,24.75
2016-08-23T10:00:57.081Z,24.75
2016-08-23T10:01:56.394Z,24.81
2016-08-23T10:02:56.427Z,24.81
2016-08-23T10:03:57.163Z,24.89
2016-08-23T10:04:56.471Z,24.85
2016-08-23T10:05:57.220Z,25.09
2016-08-23T10:06:56.533Z,25.19
2016-08-23T10:07:56.571Z,25.29
2016-08-23T10:08:55.882Z,25.3
2016-08-23T10:09:57.317Z,25.39
2016-08-23T10:10:56.684Z,25.58
2016-08-23T10:11:56.694Z,25.77
2016-08-23T10:12:55.986Z,26.06
2016-08-23T10:13:56.007Z,26.3
2016-08-23T10:14:56.743Z,26.37
2016-08-23T10:15:56.085Z,26.3
2016-08-23T10:16:56.100Z,26.34
2016-08-23T10:17:57.543Z,26.15
2016-08-23T10:18:56.313Z,26.15
2016-08-23T10:19:57.613Z,26.24
2016-08-23T10:20:57.014Z,26.18
2016-08-23T10:21:56.943Z,26.33
2016-08-23T10:22:56.971Z,26.49
2016-08-23T10:23:57.023Z,26.66
2016-08-23T10:24:56.333Z,26.83
2016-08-23T10:25:56.363Z,26.96
2016-08-23T10:26:57.089Z,27.03
2016-08-23T10:27:57.128Z,27.2
2016-08-23T10:28:57.152Z,27.26
2016-08-23T10:29:57.171Z,27.29
2016-08-23T10:30:57.202Z,27.29
2016-08-23T10:31:57.940Z,27.25
2016-08-23T10:32:57.979Z,27.22
2016-08-23T10:33:57.284Z,27.13
2016-08-23T10:34:58.043Z,27.25
2016-08-23T10:35:57.353Z,27.3
2016-08-23T10:36:58.095Z,27.4
2016-08-23T10:37:58.108Z,27.4
2016-08-23T10:38:57.431Z,27.26
2016-08-23T10:39:58.161Z,27.16
2016-08-23T10:40:57.494Z,27.15
2016-08-23T10:41:58.213Z,27.22
2016-08-23T10:42:57.553Z,27.25
2016-08-23T10:43:57.583Z,27.34
2016-08-23T10:44:58.313Z,27.53
2016-08-23T10:45:58.353Z,27.48
2016-08-23T10:46:57.668Z,27.63
2016-08-23T10:47:57.678Z,27.9
2016-08-23T10:48:58.441Z,28.09
2016-08-23T10:49:57.052Z,28.1
2016-08-23T10:50:57.774Z,28.23
2016-08-23T10:51:57.162Z,28.34
2016-08-23T10:52:57.831Z,28.55
2016-08-23T10:53:58.573Z,28.74
2016-08-23T10:54:58.616Z,28.86
2016-08-23T10:55:57.924Z,28.92
2016-08-23T10:56:58.003Z,28.92
2016-08-23T10:57:57.983Z,28.94
2016-08-23T10:58:58.724Z,28.9
2016-08-23T10:59:58.753Z,28.89
2016-08-23T11:00:57.393Z,28.77
2016-08-23T11:01:58.990Z,28.78
2016-08-23T11:02:58.180Z,28.89
2016-08-23T11:03:58.176Z,29.06
2016-08-23T11:04:58.891Z,28.92
2016-08-23T11:05:58.322Z,28.72
2016-08-23T11:06:59.269Z,28.87
2016-08-23T11:07:58.993Z,28.83
2016-08-23T11:08:58.310Z,28.97
2016-08-23T11:09:58.335Z,29.06
2016-08-23T11:10:58.373Z,29.2
2016-08-23T11:11:58.466Z,29.34
2016-08-23T11:12:58.421Z,29.27
2016-08-23T11:13:59.172Z,29.15
2016-08-23T11:14:57.833Z,29.3
2016-08-23T11:15:59.212Z,29.2
2016-08-23T11:16:58.551Z,29.1
2016-08-23T11:17:58.573Z,29.2
2016-08-23T11:18:59.323Z,29.09
2016-08-23T11:19:58.633Z,29.1
2016-08-23T11:20:58.742Z,29.21
2016-08-23T11:21:58.853Z,29.22
2016-08-23T11:22:58.043Z,29.13
2016-08-23T11:23:58.762Z,29.07
2016-08-23T11:24:58.775Z,28.82
2016-08-23T11:25:59.780Z,28.62
2016-08-23T11:26:58.843Z,28.53
2016-08-23T11:27:59.582Z,28.31
2016-08-23T11:28:58.921Z,28.12
2016-08-23T11:29:58.934Z,27.82
2016-08-23T11:30:59.115Z,27.66
2016-08-23T11:31:59.733Z,27.64
2016-08-23T11:32:59.743Z,27.63
2016-08-23T11:33:59.053Z,27.57
2016-08-23T11:34:59.793Z,27.78
2016-08-23T11:35:59.115Z,27.85
2016-08-23T11:36:59.874Z,27.98
2016-08-23T11:37:59.164Z,27.97
2016-08-23T11:38:59.916Z,27.85
2016-08-23T11:39:59.223Z,27.78
2016-08-23T11:40:58.553Z,27.81
2016-08-23T11:41:59.528Z,28.03
2016-08-23T11:43:00.073Z,28.19
2016-08-23T11:43:59.346Z,28.3
2016-08-23T11:44:59.533Z,28.35
2016-08-23T11:46:00.113Z,28.34
2016-08-23T11:46:59.479Z,28.35
2016-08-23T11:47:59.466Z,28.37
2016-08-23T11:49:00.196Z,28.4
2016-08-23T11:50:00.240Z,28.46
2016-08-23T11:51:00.261Z,28.53
2016-08-23T11:51:59.633Z,28.68
2016-08-23T11:53:00.323Z,28.68
2016-08-23T11:54:00.631Z,28.46
2016-08-23T11:54:59.683Z,28.45
2016-08-23T11:56:00.404Z,28.52
2016-08-23T11:57:00.449Z,28.55
2016-08-23T11:58:00.470Z,28.62
2016-08-23T11:58:59.893Z,28.78
2016-08-23T12:00:00.517Z,28.75
2016-08-23T12:01:00.742Z,28.87
2016-08-23T12:02:00.591Z,28.78
2016-08-23T12:03:00.662Z,28.72
2016-08-23T12:03:59.933Z,28.68
2016-08-23T12:05:00.672Z,28.46
2016-08-23T12:06:00.710Z,28.38
2016-08-23T12:06:59.332Z,28.31
2016-08-23T12:08:00.119Z,28.18
2016-08-23T12:09:00.084Z,28
2016-08-23T12:10:00.141Z,27.81
2016-08-23T12:11:00.155Z,27.78
2016-08-23T12:12:00.324Z,27.58
2016-08-23T12:13:00.913Z,27.48
2016-08-23T12:13:59.532Z,27.47
2016-08-23T12:15:00.248Z,27.25
2016-08-23T12:16:00.299Z,27.03
2016-08-23T12:17:00.314Z,26.82
2016-08-23T12:18:01.063Z,26.74
2016-08-23T12:19:00.382Z,26.59
2016-08-23T12:20:01.152Z,26.46
2016-08-23T12:21:01.218Z,26.36
2016-08-23T12:22:01.170Z,26.22
2016-08-23T12:23:01.202Z,26.13
2016-08-23T12:24:00.534Z,26.07
2016-08-23T12:25:00.553Z,26.06
2016-08-23T12:26:01.282Z,26.22
2016-08-23T12:27:01.366Z,26.07
2016-08-23T12:28:00.632Z,26.23
2016-08-23T12:29:00.662Z,26.23
2016-08-23T12:30:01.525Z,26.13
2016-08-23T12:31:01.419Z,26.16
2016-08-23T12:32:01.502Z,26.04
2016-08-23T12:33:01.471Z,25.92
2016-08-23T12:34:01.526Z,25.8
2016-08-23T12:35:00.205Z,25.81
2016-08-23T12:36:01.635Z,25.89
2016-08-23T12:37:00.902Z,25.83
2016-08-23T12:38:01.619Z,25.92
2016-08-23T12:39:00.995Z,25.91
2016-08-23T12:40:01.681Z,25.76
2016-08-23T12:41:01.711Z,25.83
2016-08-23T12:42:01.029Z,25.74
2016-08-23T12:43:00.352Z,25.74
2016-08-23T12:44:00.383Z,25.63
2016-08-23T12:45:01.105Z,25.68
2016-08-23T12:46:01.832Z,25.58
2016-08-23T12:47:01.166Z,25.55
2016-08-23T12:48:01.187Z,25.52
2016-08-23T12:49:00.512Z,25.61
2016-08-23T12:50:01.966Z,25.68
2016-08-23T12:51:00.559Z,25.73
2016-08-23T12:52:02.136Z,26.01
2016-08-23T12:53:01.333Z,26.23
2016-08-23T12:54:02.078Z,26.39
2016-08-23T12:55:01.403Z,26.6
2016-08-23T12:56:00.702Z,26.74
2016-08-23T12:57:01.438Z,27.13